Time;durP1;ratioP1;P1;durP2;ratioP2;P2;SDS_P1;SDS_P2;PMS_P1;PMS_P2;Temp;Humidity;BMP_temperature;BMP_pressure;BME280_temperature;BME280_humidity;BME280_pressure;Samples;Min_cycle;Max_cycle;Signal;HPM_P1;HPM_P2
2022/03/18 00:00:00;;;;;;;214.15;102.88;;;;;;;;;;5083991;28;20059;-73
2022/03/18 00:02:26;;;;;;;84.75;39.25;;;;;;;;;;5085261;28;20123;-73
2022/03/18 00:04:52;;;;;;;143.02;65.65;;;;;;;;;;5074290;28;20066;-72
2022/03/18 00:07:19;;;;;;;119.22;54.20;;;;;;;;;;5082420;28;20107;-72
2022/03/18 00:09:45;;;;;;;113.03;52.75;;;;;;;;;;5089000;28;20094;-72
2022/03/18 00:12:11;;;;;;;386.70;167.48;;;;;;;;;;5086275;28;20388;-72
2022/03/18 00:14:39;;;;;;;93.95;45.75;;;;;;;;;;5077908;28;20055;-73
2022/03/18 00:17:08;;;;;;;63.10;34.78;;;;;;;;;;5089264;28;20435;-72
2022/03/18 00:19:34;;;;;;;130.60;62.83;;;;;;;;;;5085882;28;20144;-72
2022/03/18 00:22:01;;;;;;;109.40;54.83;;;;;;;;;;5083983;28;20037;-71
2022/03/18 00:24:33;;;;;;;83.07;43.08;;;;;;;;;;5068126;28;21206;-72
2022/03/18 00:27:03;;;;;;;61.45;33.53;;;;;;;;;;5086874;28;20059;-72
2022/03/18 00:29:29;;;;;;;51.17;31.83;;;;;;;;;;5087611;28;20031;-72
2022/03/18 00:31:54;;;;;;;44.63;27.92;;;;;;;;;;5085145;28;20028;-72
2022/03/18 00:34:19;;;;;;;37.90;25.17;;;;;;;;;;5084980;28;20036;-72
2022/03/18 00:36:45;;;;;;;45.20;28.92;;;;;;;;;;5086678;28;20028;-72
2022/03/18 00:39:10;;;;;;;47.38;28.95;;;;;;;;;;5080220;28;20020;-72
2022/03/18 00:41:36;;;;;;;114.68;59.88;;;;;;;;;;5079470;28;20035;-72
2022/03/18 00:44:02;;;;;;;84.32;50.17;;;;;;;;;;5084771;28;20425;-72
2022/03/18 00:46:27;;;;;;;127.53;69.55;;;;;;;;;;5085432;28;20358;-72
2022/03/18 00:54:20;;;;;;;77.50;42.28;;;;;;;;;;5080805;28;20034;-72
2022/03/18 00:56:46;;;;;;;41.30;25.05;;;;;;;;;;5086724;28;20020;-72
2022/03/18 00:59:12;;;;;;;45.10;27.17;;;;;;;;;;5085954;28;20024;-75
2022/03/18 01:01:37;;;;;;;39.58;23.63;;;;;;;;;;5085276;28;20060;-74
2022/03/18 01:04:03;;;;;;;35.60;22.40;;;;;;;;;;5087652;28;20103;-72
2022/03/18 01:06:29;;;;;;;35.40;22.73;;;;;;;;;;5080440;28;20449;-72
2022/03/18 01:08:54;;;;;;;29.95;20.83;;;;;;;;;;5065830;28;20028;-72
2022/03/18 01:11:20;;;;;;;42.58;24.58;;;;;;;;;;5079753;28;20443;-72
2022/03/18 01:13:45;;;;;;;34.13;22.42;;;;;;;;;;5082389;28;20052;-72
2022/03/18 01:16:10;;;;;;;40.75;27.25;;;;;;;;;;5078740;28;20020;-72
2022/03/18 01:18:36;;;;;;;144.10;72.72;;;;;;;;;;5083878;28;20044;-72
2022/03/18 01:21:01;;;;;;;158.77;78.40;;;;;;;;;;5085455;28;20077;-72
2022/03/18 01:23:26;;;;;;;147.20;75.35;;;;;;;;;;5083646;28;20482;-74
2022/03/18 01:25:54;;;;;;;129.25;66.70;;;;;;;;;;5084164;28;20024;-72
2022/03/18 01:28:19;;;;;;;176.60;82.95;;;;;;;;;;5083928;28;20015;-71
2022/03/18 01:30:44;;;;;;;103.25;53.80;;;;;;;;;;5084475;28;20027;-72
2022/03/18 01:33:10;;;;;;;115.15;57.85;;;;;;;;;;5074478;28;20048;-72
2022/03/18 01:35:37;;;;;;;117.30;60.90;;;;;;;;;;5083746;28;20059;-73
2022/03/18 01:38:02;;;;;;;88.20;44.20;;;;;;;;;;5083584;28;20165;-72
2022/03/18 01:40:28;;;;;;;81.30;42.00;;;;;;;;;;5085395;28;20503;-73
2022/03/18 01:42:53;;;;;;;85.72;45.03;;;;;;;;;;5084837;28;20453;-73
2022/03/18 01:45:18;;;;;;;97.13;50.72;;;;;;;;;;5085256;28;20023;-73
2022/03/18 01:47:44;;;;;;;68.35;38.08;;;;;;;;;;5084155;28;20024;-72
2022/03/18 01:50:13;;;;;;;41.67;25.23;;;;;;;;;;5085831;28;20063;-72
2022/03/18 01:52:38;;;;;;;49.30;32.55;;;;;;;;;;5086213;28;20020;-72
2022/03/18 01:55:04;;;;;;;124.15;63.20;;;;;;;;;;5084157;28;20035;-72
2022/03/18 01:57:29;;;;;;;111.22;56.05;;;;;;;;;;5084415;28;20089;-72
2022/03/18 01:59:55;;;;;;;118.60;58.90;;;;;;;;;;5084799;28;20085;-72
2022/03/18 02:02:21;;;;;;;62.58;33.92;;;;;;;;;;5084025;28;20020;-72
2022/03/18 02:04:46;;;;;;;65.38;36.20;;;;;;;;;;5085695;28;20034;-72
2022/03/18 02:07:12;;;;;;;84.75;46.85;;;;;;;;;;5085922;28;20054;-72
2022/03/18 02:09:39;;;;;;;39.78;25.48;;;;;;;;;;5084866;28;20031;-72
2022/03/18 02:12:04;;;;;;;54.08;31.52;;;;;;;;;;5083198;28;20102;-72
2022/03/18 02:14:31;;;;;;;54.47;32.97;;;;;;;;;;5082688;28;20048;-72
2022/03/18 02:16:56;;;;;;;44.13;26.20;;;;;;;;;;5084113;28;20028;-72
2022/03/18 02:19:21;;;;;;;45.83;29.33;;;;;;;;;;5074765;28;20147;-73
2022/03/18 02:21:48;;;;;;;45.92;27.77;;;;;;;;;;5072663;28;20028;-73
2022/03/18 02:24:13;;;;;;;38.25;25.55;;;;;;;;;;5054918;28;20089;-75
2022/03/18 02:26:39;;;;;;;43.53;27.67;;;;;;;;;;5075069;28;20024;-72
2022/03/18 02:29:04;;;;;;;46.33;29.58;;;;;;;;;;5086904;28;20060;-72
2022/03/18 02:31:30;;;;;;;44.17;29.73;;;;;;;;;;5075508;28;20088;-73
2022/03/18 02:33:56;;;;;;;45.08;28.65;;;;;;;;;;5075341;28;20035;-73
2022/03/18 02:36:21;;;;;;;52.60;30.33;;;;;;;;;;5087029;28;20024;-72
2022/03/18 02:38:46;;;;;;;62.00;36.83;;;;;;;;;;5086027;28;20039;-72
2022/03/18 02:41:12;;;;;;;100.57;58.38;;;;;;;;;;5081906;28;20136;-72
2022/03/18 02:43:38;;;;;;;106.38;55.75;;;;;;;;;;5083915;28;20107;-72
2022/03/18 02:46:03;;;;;;;108.78;62.63;;;;;;;;;;5083624;28;20119;-72
2022/03/18 02:48:28;;;;;;;132.05;70.50;;;;;;;;;;5085874;28;20115;-72
2022/03/18 02:50:54;;;;;;;99.50;56.75;;;;;;;;;;5078797;28;20455;-72
2022/03/18 02:53:19;;;;;;;90.68;50.08;;;;;;;;;;5074116;28;20115;-72
2022/03/18 02:55:44;;;;;;;90.00;51.33;;;;;;;;;;5075222;28;20060;-72
2022/03/18 02:58:10;;;;;;;90.35;49.55;;;;;;;;;;5083321;28;20023;-72
2022/03/18 03:00:35;;;;;;;97.63;57.28;;;;;;;;;;5082883;28;20024;-73
2022/03/18 03:03:01;;;;;;;97.25;53.30;;;;;;;;;;5075127;28;20427;-72
2022/03/18 03:08:10;;;;;;;79.22;45.45;;;;;;;;;;5085056;28;20035;-75
2022/03/18 03:10:38;;;;;;;73.00;41.20;;;;;;;;;;5075736;28;20031;-73
2022/03/18 03:13:06;;;;;;;59.08;33.50;;;;;;;;;;5082202;28;20436;-74
2022/03/18 03:15:32;;;;;;;40.75;24.83;;;;;;;;;;5082331;28;20162;-74
2022/03/18 03:17:57;;;;;;;34.10;21.08;;;;;;;;;;5075243;28;20120;-74
2022/03/18 03:20:22;;;;;;;38.83;24.40;;;;;;;;;;5083190;28;20435;-74
2022/03/18 03:22:48;;;;;;;36.53;23.25;;;;;;;;;;5085174;28;20038;-74
2022/03/18 03:25:13;;;;;;;34.85;20.70;;;;;;;;;;5075134;28;20016;-74
2022/03/18 03:27:38;;;;;;;31.45;19.17;;;;;;;;;;5081332;28;20024;-74
2022/03/18 03:30:05;;;;;;;31.25;18.98;;;;;;;;;;5081831;28;20431;-74
2022/03/18 03:32:31;;;;;;;29.80;19.58;;;;;;;;;;5083543;28;20051;-74
2022/03/18 03:34:57;;;;;;;31.90;19.23;;;;;;;;;;5073722;28;20443;-74
2022/03/18 03:37:23;;;;;;;27.67;17.48;;;;;;;;;;5081519;28;20427;-74
2022/03/18 03:39:48;;;;;;;62.13;38.05;;;;;;;;;;5083005;28;20107;-74
2022/03/18 03:42:14;;;;;;;34.85;20.70;;;;;;;;;;5073214;28;20036;-73
2022/03/18 03:44:39;;;;;;;31.25;20.98;;;;;;;;;;5083327;28;20123;-74
2022/03/18 03:47:04;;;;;;;56.92;36.33;;;;;;;;;;5082239;28;20343;-73
2022/03/18 03:49:30;;;;;;;37.53;24.13;;;;;;;;;;5074217;28;21084;-73
2022/03/18 03:51:55;;;;;;;33.17;20.00;;;;;;;;;;5082765;28;20031;-71
2022/03/18 03:54:21;;;;;;;41.65;27.13;;;;;;;;;;5079761;28;20398;-73
2022/03/18 03:56:46;;;;;;;35.80;22.50;;;;;;;;;;5076029;28;20501;-74
2022/03/18 03:59:11;;;;;;;30.27;19.10;;;;;;;;;;5075926;28;20024;-72
2022/03/18 04:01:37;;;;;;;84.03;37.80;;;;;;;;;;5081851;28;20016;-73
2022/03/18 04:04:04;;;;;;;46.67;26.48;;;;;;;;;;5084395;28;20031;-73
2022/03/18 04:06:30;;;;;;;33.15;21.70;;;;;;;;;;5081764;28;20350;-73
2022/03/18 04:08:55;;;;;;;56.83;29.40;;;;;;;;;;5082542;28;20036;-73
2022/03/18 04:11:20;;;;;;;61.33;29.85;;;;;;;;;;5082470;28;20020;-73
2022/03/18 04:13:46;;;;;;;54.75;28.45;;;;;;;;;;5083126;28;20104;-73
2022/03/18 04:16:11;;;;;;;25.98;16.40;;;;;;;;;;5081956;28;20024;-73
2022/03/18 04:18:36;;;;;;;26.63;17.38;;;;;;;;;;5082553;28;20028;-73
2022/03/18 04:21:02;;;;;;;25.20;15.32;;;;;;;;;;5083087;28;20034;-75
2022/03/18 04:23:27;;;;;;;35.40;21.33;;;;;;;;;;5070150;28;20032;-74
2022/03/18 04:25:52;;;;;;;24.70;16.05;;;;;;;;;;5071629;28;20020;-74
2022/03/18 04:28:18;;;;;;;27.90;17.05;;;;;;;;;;5082286;28;20020;-73
2022/03/18 04:30:43;;;;;;;25.13;15.65;;;;;;;;;;5074050;28;20080;-73
2022/03/18 04:33:09;;;;;;;31.15;19.58;;;;;;;;;;5080731;28;20398;-74
2022/03/18 04:35:34;;;;;;;28.13;18.23;;;;;;;;;;5076122;28;20979;-73
2022/03/18 04:38:00;;;;;;;29.05;18.02;;;;;;;;;;5060508;28;20127;-73
2022/03/18 04:40:25;;;;;;;32.55;21.27;;;;;;;;;;5074496;28;20097;-73
2022/03/18 04:42:50;;;;;;;38.92;23.35;;;;;;;;;;5083774;28;20519;-73
2022/03/18 04:45:16;;;;;;;47.13;28.50;;;;;;;;;;5082237;28;20040;-73
2022/03/18 04:47:42;;;;;;;37.13;22.10;;;;;;;;;;5073949;28;20105;-74
2022/03/18 04:50:08;;;;;;;38.92;21.40;;;;;;;;;;5072533;28;20034;-73
2022/03/18 04:52:33;;;;;;;39.58;23.25;;;;;;;;;;5070650;28;20036;-73
2022/03/18 04:54:58;;;;;;;50.22;31.98;;;;;;;;;;5071749;28;20439;-72
2022/03/18 04:57:24;;;;;;;94.57;55.40;;;;;;;;;;5077034;28;20070;-74
2022/03/18 04:59:52;;;;;;;101.95;58.65;;;;;;;;;;5084803;28;20056;-73
2022/03/18 05:02:17;;;;;;;83.07;50.03;;;;;;;;;;5076275;28;20059;-74
2022/03/18 05:04:44;;;;;;;98.07;52.30;;;;;;;;;;5087962;28;20063;-74
2022/03/18 05:07:11;;;;;;;95.90;50.13;;;;;;;;;;5087244;28;20109;-73
2022/03/18 05:09:37;;;;;;;76.32;41.65;;;;;;;;;;5086980;28;20389;-74
2022/03/18 05:12:02;;;;;;;60.70;34.17;;;;;;;;;;5085826;28;20023;-70
2022/03/18 05:14:28;;;;;;;103.68;59.30;;;;;;;;;;5086314;28;20446;-69
2022/03/18 05:16:53;;;;;;;110.28;55.22;;;;;;;;;;5073781;28;20020;-70
2022/03/18 05:19:18;;;;;;;58.60;34.22;;;;;;;;;;5080739;28;20132;-72
2022/03/18 05:21:44;;;;;;;45.58;26.77;;;;;;;;;;5077384;28;20015;-70
2022/03/18 05:24:09;;;;;;;45.50;27.70;;;;;;;;;;5076420;28;20084;-72
2022/03/18 05:26:35;;;;;;;64.18;36.05;;;;;;;;;;5083987;28;20032;-72
2022/03/18 05:29:02;;;;;;;58.03;34.85;;;;;;;;;;5087473;28;20034;-71
2022/03/18 05:31:28;;;;;;;59.58;33.00;;;;;;;;;;5085631;28;20561;-69
2022/03/18 05:33:56;;;;;;;49.92;29.42;;;;;;;;;;5076969;28;20024;-70
2022/03/18 05:36:22;;;;;;;43.47;23.52;;;;;;;;;;5085374;28;20024;-73
2022/03/18 05:38:47;;;;;;;40.53;23.27;;;;;;;;;;5076373;28;20028;-72
2022/03/18 05:41:13;;;;;;;67.40;35.95;;;;;;;;;;5079329;28;20081;-71
2022/03/18 05:43:39;;;;;;;55.13;29.88;;;;;;;;;;5074239;28;20495;-72
2022/03/18 05:46:04;;;;;;;82.63;41.63;;;;;;;;;;5073995;28;20028;-69
2022/03/18 05:48:29;;;;;;;45.00;26.15;;;;;;;;;;5072819;28;20331;-70
2022/03/18 05:50:55;;;;;;;34.97;21.60;;;;;;;;;;5073939;28;20031;-75
2022/03/18 05:53:20;;;;;;;35.65;21.63;;;;;;;;;;5063146;28;20078;-72
2022/03/18 05:58:30;;;;;;;38.88;23.58;;;;;;;;;;5079428;28;20022;-74
2022/03/18 06:00:55;;;;;;;51.58;31.10;;;;;;;;;;5084387;28;21057;-70
2022/03/18 06:03:21;;;;;;;35.80;21.90;;;;;;;;;;5084365;28;20031;-71
2022/03/18 06:05:46;;;;;;;48.05;27.55;;;;;;;;;;5083954;28;20023;-71
2022/03/18 06:13:39;;;;;;;37.78;22.33;;;;;;;;;;5083974;28;20084;-72
2022/03/18 06:16:05;;;;;;;58.58;32.70;;;;;;;;;;5083600;28;20033;-72
2022/03/18 06:18:30;;;;;;;57.03;32.10;;;;;;;;;;5083698;28;20028;-74
2022/03/18 06:20:56;;;;;;;84.65;45.78;;;;;;;;;;5085823;28;20591;-71
2022/03/18 06:23:21;;;;;;;82.65;50.85;;;;;;;;;;5076939;28;20080;-71
2022/03/18 06:25:47;;;;;;;74.55;45.97;;;;;;;;;;5086052;28;20445;-72
2022/03/18 06:28:12;;;;;;;142.23;75.05;;;;;;;;;;5073331;28;20088;-72
2022/03/18 06:30:37;;;;;;;113.43;59.88;;;;;;;;;;5077268;28;20135;-71
2022/03/18 06:33:03;;;;;;;106.13;59.03;;;;;;;;;;5084668;28;20070;-71
2022/03/18 06:35:29;;;;;;;124.93;68.47;;;;;;;;;;5083260;28;20115;-69
2022/03/18 06:37:54;;;;;;;174.15;100.15;;;;;;;;;;5084957;28;20102;-72
2022/03/18 06:40:20;;;;;;;180.90;96.75;;;;;;;;;;5085304;28;20052;-73
2022/03/18 06:42:46;;;;;;;215.57;103.72;;;;;;;;;;5085066;28;20023;-72
2022/03/18 06:45:11;;;;;;;105.93;54.40;;;;;;;;;;5084214;28;20028;-75
2022/03/18 06:47:36;;;;;;;103.57;53.08;;;;;;;;;;5085160;28;20070;-73
2022/03/18 06:50:02;;;;;;;159.57;84.28;;;;;;;;;;5083954;28;20032;-71
2022/03/18 06:52:27;;;;;;;173.85;89.50;;;;;;;;;;5074648;28;20053;-72
2022/03/18 06:54:52;;;;;;;192.27;99.75;;;;;;;;;;5085224;28;20032;-71
2022/03/18 06:57:18;;;;;;;179.73;97.35;;;;;;;;;;5085930;28;20035;-70
2022/03/18 06:59:43;;;;;;;122.05;71.15;;;;;;;;;;5082814;28;20447;-72
2022/03/18 07:02:08;;;;;;;85.93;49.03;;;;;;;;;;5083019;28;20031;-75
2022/03/18 07:04:34;;;;;;;112.55;68.63;;;;;;;;;;5070307;28;20161;-70
2022/03/18 07:07:01;;;;;;;154.40;84.55;;;;;;;;;;5075961;28;20454;-68
2022/03/18 07:09:27;;;;;;;127.13;68.78;;;;;;;;;;5083036;28;21252;-70
2022/03/18 07:11:52;;;;;;;215.85;108.00;;;;;;;;;;5101316;28;20062;-71
2022/03/18 07:14:17;;;;;;;156.07;75.90;;;;;;;;;;5072506;28;20048;-68
2022/03/18 07:19:28;;;;;;;101.57;59.33;;;;;;;;;;5073908;28;20034;-69
2022/03/18 07:21:54;;;;;;;104.90;64.85;;;;;;;;;;5072702;28;20035;-69
2022/03/18 07:24:19;;;;;;;96.22;60.47;;;;;;;;;;5073953;28;20044;-70
2022/03/18 07:26:44;;;;;;;61.72;38.83;;;;;;;;;;5084884;28;20105;-69
2022/03/18 07:29:10;;;;;;;82.25;45.28;;;;;;;;;;5082909;28;20034;-70
2022/03/18 07:31:35;;;;;;;64.28;39.15;;;;;;;;;;5084536;28;20071;-70
2022/03/18 07:34:00;;;;;;;69.15;41.25;;;;;;;;;;5082343;28;20031;-73
2022/03/18 07:36:26;;;;;;;62.72;35.42;;;;;;;;;;5072203;28;20016;-73
2022/03/18 07:38:51;;;;;;;43.70;31.48;;;;;;;;;;5074567;28;20030;-74
2022/03/18 07:41:17;;;;;;;37.88;24.75;;;;;;;;;;5081618;28;20046;-73
2022/03/18 07:43:42;;;;;;;45.67;24.70;;;;;;;;;;5077990;28;20035;-71
2022/03/18 07:46:08;;;;;;;62.17;37.05;;;;;;;;;;5070302;28;20020;-73
2022/03/18 07:48:33;;;;;;;58.35;34.75;;;;;;;;;;5070790;28;20027;-73
2022/03/18 07:50:59;;;;;;;42.40;22.95;;;;;;;;;;5080118;28;20085;-72
2022/03/18 07:53:24;;;;;;;71.00;30.00;;;;;;;;;;5082490;28;20096;-72
2022/03/18 07:55:49;;;;;;;73.07;33.40;;;;;;;;;;5080688;28;20442;-73
2022/03/18 07:58:15;;;;;;;35.95;21.80;;;;;;;;;;5080340;28;20569;-72
2022/03/18 08:00:40;;;;;;;169.60;79.25;;;;;;;;;;5082560;28;20028;-74
2022/03/18 08:03:06;;;;;;;190.95;76.00;;;;;;;;;;5081489;28;20070;-76
2022/03/18 08:05:31;;;;;;;140.25;54.47;;;;;;;;;;5082848;28;20028;-75
2022/03/18 08:07:57;;;;;;;161.27;61.15;;;;;;;;;;5081073;28;20047;-73
2022/03/18 08:10:23;;;;;;;51.97;27.80;;;;;;;;;;5080760;28;20112;-72
2022/03/18 08:12:48;;;;;;;164.63;74.63;;;;;;;;;;5080903;28;20162;-72
2022/03/18 08:15:15;;;;;;;126.30;55.47;;;;;;;;;;5082072;28;20028;-72
2022/03/18 08:17:41;;;;;;;302.38;130.18;;;;;;;;;;5081950;28;20351;-72
2022/03/18 08:20:07;;;;;;;73.57;37.78;;;;;;;;;;5080361;28;20419;-74
2022/03/18 08:22:34;;;;;;;51.10;31.02;;;;;;;;;;5082917;28;20122;-72
2022/03/18 08:24:59;;;;;;;36.70;24.15;;;;;;;;;;5081141;28;20089;-72
2022/03/18 08:27:25;;;;;;;79.53;45.20;;;;;;;;;;5081569;28;20843;-72
2022/03/18 08:29:50;;;;;;;94.53;44.10;;;;;;;;;;5086109;28;20056;-73
2022/03/18 08:32:16;;;;;;;49.30;27.85;;;;;;;;;;5089000;28;20031;-73
2022/03/18 08:34:42;;;;;;;35.65;23.38;;;;;;;;;;5084630;28;20032;-73
2022/03/18 08:37:09;;;;;;;36.10;23.40;;;;;;;;;;5074433;28;20053;-73
2022/03/18 08:39:35;;;;;;;31.85;20.75;;;;;;;;;;5085106;28;20034;-72
2022/03/18 08:42:01;;;;;;;34.60;22.55;;;;;;;;;;5085407;28;20031;-73
2022/03/18 08:44:26;;;;;;;45.80;25.05;;;;;;;;;;5085981;28;20443;-72
2022/03/18 08:46:52;;;;;;;21.67;13.70;;;;;;;;;;5084586;28;20358;-73
2022/03/18 08:49:17;;;;;;;45.13;21.58;;;;;;;;;;5084518;28;20092;-73
2022/03/18 08:51:43;;;;;;;21.60;15.63;;;;;;;;;;5086636;28;20025;-72
2022/03/18 08:54:08;;;;;;;70.75;45.58;;;;;;;;;;5085415;28;20458;-73
2022/03/18 08:56:33;;;;;;;50.08;30.55;;;;;;;;;;5085332;28;20020;-72
2022/03/18 08:58:59;;;;;;;23.45;15.10;;;;;;;;;;5084592;28;20055;-72
2022/03/18 09:01:25;;;;;;;20.92;14.23;;;;;;;;;;5085037;28;20493;-73
2022/03/18 09:03:53;;;;;;;18.67;12.75;;;;;;;;;;5085221;28;20483;-74
2022/03/18 09:06:18;;;;;;;25.08;17.75;;;;;;;;;;5087312;28;20027;-76
2022/03/18 09:08:44;;;;;;;16.00;10.82;;;;;;;;;;5082928;28;20024;-78
2022/03/18 09:11:10;;;;;;;12.88;9.57;;;;;;;;;;5078603;28;20435;-74
2022/03/18 09:13:35;;;;;;;11.18;8.48;;;;;;;;;;5088165;28;20048;-75
2022/03/18 09:16:01;;;;;;;11.57;8.38;;;;;;;;;;5085694;28;20028;-74
2022/03/18 09:18:26;;;;;;;9.38;7.18;;;;;;;;;;5085427;28;20027;-74
2022/03/18 09:20:52;;;;;;;22.95;16.25;;;;;;;;;;5077678;28;20116;-76
2022/03/18 09:23:17;;;;;;;14.63;10.00;;;;;;;;;;5083804;28;20028;-76
2022/03/18 09:25:43;;;;;;;24.50;16.98;;;;;;;;;;5086867;28;20374;-77
2022/03/18 09:28:08;;;;;;;13.75;9.32;;;;;;;;;;5084224;28;20405;-76
2022/03/18 09:30:33;;;;;;;24.45;10.88;;;;;;;;;;5085023;28;20052;-76
2022/03/18 09:32:59;;;;;;;27.75;17.00;;;;;;;;;;5084690;28;20024;-75
2022/03/18 09:35:25;;;;;;;90.05;34.53;;;;;;;;;;5084602;28;20411;-77
2022/03/18 09:37:50;;;;;;;33.05;17.20;;;;;;;;;;5084716;28;20020;-75
2022/03/18 09:40:16;;;;;;;17.02;11.70;;;;;;;;;;5082173;28;20035;-75
2022/03/18 09:42:56;;;;;;;13.77;10.00;;;;;;;;;;5084441;28;20020;-75
2022/03/18 09:45:23;;;;;;;20.10;15.38;;;;;;;;;;5086243;28;20419;-77
2022/03/18 09:47:49;;;;;;;21.40;13.32;;;;;;;;;;5084091;28;20027;-75
2022/03/18 09:50:15;;;;;;;23.55;12.52;;;;;;;;;;5080704;28;20327;-75
2022/03/18 09:52:40;;;;;;;76.05;26.17;;;;;;;;;;5073068;28;20026;-76
2022/03/18 09:55:05;;;;;;;67.40;24.50;;;;;;;;;;5083561;28;20347;-77
2022/03/18 09:57:31;;;;;;;31.63;18.45;;;;;;;;;;5066943;28;20442;-77
2022/03/18 09:59:56;;;;;;;27.50;16.40;;;;;;;;;;5084089;28;20062;-76
2022/03/18 10:02:21;;;;;;;18.08;11.60;;;;;;;;;;5084613;28;20377;-77
2022/03/18 10:04:51;;;;;;;13.95;9.15;;;;;;;;;;5084708;28;20024;-77
2022/03/18 10:07:16;;;;;;;15.57;9.70;;;;;;;;;;5084714;28;20028;-75
2022/03/18 10:09:41;;;;;;;11.57;8.48;;;;;;;;;;5080982;28;20043;-75
2022/03/18 10:12:08;;;;;;;10.93;7.85;;;;;;;;;;5078677;28;20034;-73
2022/03/18 10:14:34;;;;;;;11.73;8.10;;;;;;;;;;5083648;28;20097;-72
2022/03/18 10:17:04;;;;;;;14.23;10.45;;;;;;;;;;5078724;28;20024;-77
2022/03/18 10:19:29;;;;;;;11.65;7.43;;;;;;;;;;5086071;28;20455;-81
2022/03/18 10:21:55;;;;;;;47.67;17.73;;;;;;;;;;5069226;28;20036;-79
2022/03/18 10:24:38;;;;;;;62.60;22.83;;;;;;;;;;5084858;28;20447;-78
2022/03/18 10:27:17;;;;;;;21.63;11.65;;;;;;;;;;5085889;28;20043;-81
2022/03/18 10:29:43;;;;;;;29.83;15.20;;;;;;;;;;5085817;28;20089;-79
2022/03/18 10:32:09;;;;;;;19.88;12.65;;;;;;;;;;5085951;28;21189;-80
2022/03/18 10:37:25;;;;;;;11.63;8.90;;;;;;;;;;5083998;28;20062;-81
2022/03/18 10:39:55;;;;;;;14.85;9.75;;;;;;;;;;5083952;28;20022;-82
2022/03/18 10:42:21;;;;;;;10.52;7.63;;;;;;;;;;5075885;28;20028;-76
2022/03/18 10:44:49;;;;;;;11.70;8.85;;;;;;;;;;5079112;28;20035;-78
2022/03/18 10:47:34;;;;;;;17.38;10.43;;;;;;;;;;5075152;28;20020;-76
2022/03/18 10:50:09;;;;;;;8.90;6.85;;;;;;;;;;5077122;28;20148;-76
2022/03/18 10:52:35;;;;;;;12.32;8.73;;;;;;;;;;5083925;28;20058;-76
2022/03/18 10:55:18;;;;;;;12.20;7.72;;;;;;;;;;5067166;28;20028;-75
2022/03/18 10:57:54;;;;;;;12.32;8.93;;;;;;;;;;5082417;28;20020;-75
2022/03/18 11:00:20;;;;;;;13.73;8.93;;;;;;;;;;5068277;28;20024;-77
2022/03/18 11:02:47;;;;;;;14.70;8.90;;;;;;;;;;5081825;28;20027;-77
2022/03/18 11:05:14;;;;;;;21.38;12.65;;;;;;;;;;5076070;28;20494;-77
2022/03/18 11:07:41;;;;;;;17.80;11.50;;;;;;;;;;5072746;28;20024;-76
2022/03/18 11:12:53;;;;;;;13.63;9.35;;;;;;;;;;5075646;28;20455;-77
2022/03/18 11:15:19;;;;;;;11.63;7.55;;;;;;;;;;5073074;28;20120;-77
2022/03/18 11:17:45;;;;;;;8.98;7.70;;;;;;;;;;5080425;28;20462;-77
2022/03/18 11:20:11;;;;;;;12.10;8.02;;;;;;;;;;5071526;28;20055;-77
2022/03/18 11:22:37;;;;;;;13.35;8.75;;;;;;;;;;5083010;28;20035;-78
2022/03/18 11:25:03;;;;;;;15.45;11.35;;;;;;;;;;5083068;28;20032;-78
2022/03/18 11:27:28;;;;;;;11.93;8.38;;;;;;;;;;5078284;28;20468;-79
2022/03/18 11:30:14;;;;;;;12.98;8.77;;;;;;;;;;5079756;28;20028;-79
2022/03/18 11:32:39;;;;;;;13.02;8.27;;;;;;;;;;5071416;28;20031;-78
2022/03/18 11:35:06;;;;;;;10.70;7.72;;;;;;;;;;5081957;28;20351;-78
2022/03/18 11:37:33;;;;;;;13.25;9.93;;;;;;;;;;5083107;28;20101;-79
2022/03/18 11:40:18;;;;;;;17.40;11.48;;;;;;;;;;5086644;28;20069;-80
2022/03/18 11:42:45;;;;;;;14.10;9.88;;;;;;;;;;5073433;28;20620;-78
2022/03/18 11:45:12;;;;;;;15.55;12.10;;;;;;;;;;5083347;28;20024;-81
2022/03/18 11:47:38;;;;;;;17.50;9.95;;;;;;;;;;5067938;28;20028;-81
2022/03/18 11:50:23;;;;;;;16.92;12.43;;;;;;;;;;5084024;28;20070;-81
2022/03/18 11:52:58;;;;;;;16.08;10.60;;;;;;;;;;5083557;28;20034;-78
2022/03/18 11:55:23;;;;;;;16.10;10.85;;;;;;;;;;5085198;28;20343;-79
2022/03/18 11:57:49;;;;;;;13.45;8.43;;;;;;;;;;5083176;28;20017;-80
2022/03/18 12:00:26;;;;;;;17.17;10.07;;;;;;;;;;5086046;28;20028;-80
2022/03/18 12:02:52;;;;;;;19.70;11.82;;;;;;;;;;5084294;28;20023;-78
2022/03/18 12:05:18;;;;;;;13.65;8.88;;;;;;;;;;5087577;28;20043;-79
2022/03/18 12:07:47;;;;;;;14.15;10.50;;;;;;;;;;5087235;28;20024;-81
2022/03/18 12:10:14;;;;;;;12.95;9.05;;;;;;;;;;5087685;28;20023;-80
2022/03/18 12:12:41;;;;;;;9.45;7.47;;;;;;;;;;5087056;28;20048;-81
2022/03/18 12:15:16;;;;;;;21.90;14.68;;;;;;;;;;5090530;28;20060;-78
2022/03/18 12:17:42;;;;;;;11.73;9.25;;;;;;;;;;5068799;28;20056;-80
2022/03/18 12:20:09;;;;;;;12.25;7.88;;;;;;;;;;5089378;28;20059;-79
2022/03/18 12:22:37;;;;;;;11.70;7.90;;;;;;;;;;5088132;28;20354;-77
2022/03/18 12:25:04;;;;;;;19.55;10.93;;;;;;;;;;5085631;28;20020;-78
2022/03/18 12:27:30;;;;;;;24.63;14.25;;;;;;;;;;5089473;28;20120;-79
2022/03/18 12:29:58;;;;;;;14.65;10.68;;;;;;;;;;5087030;28;20453;-77
2022/03/18 12:32:24;;;;;;;11.03;7.30;;;;;;;;;;5086832;28;20452;-78
2022/03/18 12:34:51;;;;;;;12.82;7.93;;;;;;;;;;5085824;28;20020;-78
2022/03/18 12:37:19;;;;;;;12.15;8.23;;;;;;;;;;5088613;28;20050;-79
2022/03/18 12:39:45;;;;;;;9.97;7.60;;;;;;;;;;5087191;28;20024;-76
2022/03/18 12:42:12;;;;;;;19.23;11.90;;;;;;;;;;5087568;28;20028;-79
2022/03/18 12:44:37;;;;;;;26.38;14.57;;;;;;;;;;5084857;28;20104;-78
2022/03/18 12:47:05;;;;;;;14.02;9.82;;;;;;;;;;5085146;28;20419;-77
2022/03/18 12:49:37;;;;;;;38.42;16.27;;;;;;;;;;5086435;28;20158;-79
2022/03/18 12:52:09;;;;;;;26.67;13.88;;;;;;;;;;5086177;28;20488;-77
2022/03/18 12:54:34;;;;;;;14.18;9.38;;;;;;;;;;5081775;28;20020;-77
2022/03/18 12:57:02;;;;;;;11.98;8.73;;;;;;;;;;5078430;28;20028;-76
2022/03/18 12:59:27;;;;;;;13.77;8.00;;;;;;;;;;5078486;28;20032;-76
2022/03/18 13:01:56;;;;;;;13.65;7.10;;;;;;;;;;5078534;28;20038;-76
2022/03/18 13:04:22;;;;;;;48.47;24.70;;;;;;;;;;5084812;28;20032;-75
2022/03/18 13:06:51;;;;;;;17.50;10.07;;;;;;;;;;5085479;28;20027;-77
2022/03/18 13:09:18;;;;;;;8.27;6.65;;;;;;;;;;5084678;28;20028;-75
2022/03/18 13:11:44;;;;;;;7.93;6.43;;;;;;;;;;5085487;28;20163;-77
2022/03/18 13:14:10;;;;;;;10.40;6.65;;;;;;;;;;5069629;28;20515;-78
2022/03/18 13:16:42;;;;;;;12.13;6.00;;;;;;;;;;5082850;28;20024;-78
2022/03/18 13:19:08;;;;;;;11.50;7.45;;;;;;;;;;5063113;28;20424;-78
2022/03/18 13:21:43;;;;;;;14.15;9.77;;;;;;;;;;5085999;28;20028;-77
2022/03/18 13:24:09;;;;;;;29.50;19.83;;;;;;;;;;5084509;28;20394;-79
2022/03/18 13:26:34;;;;;;;16.00;10.57;;;;;;;;;;5086580;28;20063;-76
2022/03/18 13:29:00;;;;;;;23.35;16.63;;;;;;;;;;5086920;28;20050;-76
2022/03/18 13:34:09;;;;;;;10.27;7.00;;;;;;;;;;5074822;28;20042;-78
2022/03/18 13:36:37;;;;;;;11.65;7.28;;;;;;;;;;5079874;28;20663;-75
2022/03/18 13:39:09;;;;;;;17.52;11.50;;;;;;;;;;5079428;28;20020;-81
2022/03/18 13:41:48;;;;;;;9.95;7.88;;;;;;;;;;5084172;28;20081;-77
2022/03/18 13:44:15;;;;;;;8.23;6.47;;;;;;;;;;5085977;28;20461;-78
2022/03/18 13:46:41;;;;;;;7.93;5.45;;;;;;;;;;5085453;28;20012;-78
2022/03/18 13:49:13;;;;;;;9.23;6.82;;;;;;;;;;5061335;28;20088;-77
2022/03/18 13:51:40;;;;;;;14.02;7.95;;;;;;;;;;5076556;28;20419;-77
2022/03/18 13:54:08;;;;;;;9.02;7.22;;;;;;;;;;5076904;28;20031;-79
2022/03/18 13:56:34;;;;;;;26.10;13.07;;;;;;;;;;5061283;28;20328;-79
2022/03/18 13:59:08;;;;;;;19.98;10.80;;;;;;;;;;5074804;28;20020;-80
2022/03/18 14:01:33;;;;;;;12.60;8.38;;;;;;;;;;5084008;28;20023;-76
2022/03/18 14:04:00;;;;;;;54.28;20.15;;;;;;;;;;5084020;28;20354;-77
2022/03/18 14:06:26;;;;;;;19.20;11.13;;;;;;;;;;5068468;28;20427;-77
2022/03/18 14:08:52;;;;;;;39.47;20.27;;;;;;;;;;5083843;28;20040;-75
2022/03/18 14:14:22;;;;;;;21.05;10.18;;;;;;;;;;5072520;28;20074;-78
2022/03/18 14:17:06;;;;;;;14.52;7.50;;;;;;;;;;5079629;28;20051;-77
2022/03/18 14:19:41;;;;;;;28.15;12.63;;;;;;;;;;5082553;28;20423;-80
2022/03/18 14:22:07;;;;;;;34.78;19.48;;;;;;;;;;5084505;28;20534;-78
2022/03/18 14:24:32;;;;;;;28.20;13.50;;;;;;;;;;5082894;28;20111;-78
2022/03/18 14:26:58;;;;;;;29.20;13.60;;;;;;;;;;5081240;28;20405;-76
2022/03/18 14:29:35;;;;;;;48.55;23.77;;;;;;;;;;5083068;28;20024;-78
2022/03/18 14:32:01;;;;;;;23.33;12.52;;;;;;;;;;5082774;28;20020;-76
2022/03/18 14:34:28;;;;;;;20.13;11.85;;;;;;;;;;5085768;28;20139;-78
2022/03/18 14:36:54;;;;;;;54.33;24.20;;;;;;;;;;5084996;28;20035;-80
2022/03/18 14:39:19;;;;;;;53.03;20.85;;;;;;;;;;5082329;28;20031;-78
2022/03/18 14:41:44;;;;;;;28.75;15.45;;;;;;;;;;5083950;28;20114;-76
2022/03/18 14:44:11;;;;;;;35.78;18.20;;;;;;;;;;5083050;28;20035;-78